createdAt,value
2022-08-16T00:00:47.993Z,7.78
2022-08-16T00:03:21.688Z,7.78
2022-08-16T00:05:57.609Z,10.55
2022-08-16T00:08:35.698Z,11.05
2022-08-16T00:11:07.509Z,10.98
2022-08-16T00:13:41.877Z,8.60
2022-08-16T00:17:00.988Z,10.60
2022-08-16T00:19:01.858Z,10.07
2022-08-16T00:21:31.692Z,9.32
2022-08-16T00:24:04.665Z,11.45
2022-08-16T00:26:37.472Z,8.48
2022-08-16T00:29:17.443Z,12.48
2022-08-16T00:31:59.760Z,10.75
2022-08-16T00:34:43.686Z,10.00
2022-08-16T00:37:16.973Z,8.40
2022-08-16T00:39:57.261Z,10.80
2022-08-16T00:42:32.250Z,8.43
2022-08-16T00:45:14.890Z,9.00
2022-08-16T00:47:49.318Z,9.25
2022-08-16T00:50:36.601Z,9.48
2022-08-16T00:53:06.472Z,8.23
2022-08-16T00:55:41.369Z,8.30
2022-08-16T00:58:13.080Z,8.75
2022-08-16T01:00:54.148Z,9.05
2022-08-16T01:03:30.250Z,8.45
2022-08-16T01:06:40.630Z,8.52
2022-08-16T01:09:00.056Z,8.27
2022-08-16T01:11:29.904Z,8.20
2022-08-16T01:14:08.015Z,9.70
2022-08-16T01:16:39.444Z,9.88
2022-08-16T01:19:19.680Z,9.13
2022-08-16T01:21:56.180Z,11.40
2022-08-16T01:24:55.480Z,8.43
2022-08-16T01:27:34.423Z,14.52
2022-08-16T01:30:19.561Z,9.65
2022-08-16T01:33:14.748Z,9.65
2022-08-16T01:35:57.517Z,8.18
2022-08-16T01:38:32.931Z,11.27
2022-08-16T01:41:09.612Z,9.40
2022-08-16T01:43:42.717Z,9.45
2022-08-16T01:46:37.424Z,10.38
2022-08-16T01:49:15.859Z,10.75
2022-08-16T01:51:55.157Z,10.98
2022-08-16T01:54:32.145Z,12.23
2022-08-16T01:57:11.478Z,9.52
2022-08-16T01:59:43.105Z,12.95
2022-08-16T02:02:26.781Z,10.23
2022-08-16T02:05:00.163Z,11.13
2022-08-16T02:07:30.586Z,8.90
2022-08-16T02:10:02.184Z,13.90
2022-08-16T02:12:51.450Z,13.10
2022-08-16T02:15:29.598Z,11.60
2022-08-16T02:18:01.806Z,12.35
2022-08-16T02:20:35.260Z,12.00
2022-08-16T02:23:06.015Z,10.85
2022-08-16T02:25:52.614Z,11.05
2022-08-16T02:28:27.435Z,11.70
2022-08-16T02:31:00.662Z,9.30
2022-08-16T02:33:44.460Z,11.60
2022-08-16T02:36:47.795Z,9.90
2022-08-16T02:39:22.941Z,14.27
2022-08-16T02:41:54.364Z,11.13
2022-08-16T02:44:28.587Z,8.95
2022-08-16T02:46:59.096Z,10.35
2022-08-16T02:49:58.380Z,10.77
2022-08-16T02:52:24.795Z,11.20
2022-08-16T02:55:00.944Z,12.38
2022-08-16T02:57:31.093Z,10.45
2022-08-16T03:00:34.046Z,10.98
2022-08-16T03:02:57.092Z,9.82
2022-08-16T03:05:30.832Z,9.57
2022-08-16T03:08:02.775Z,12.52
2022-08-16T03:10:39.201Z,9.60
2022-08-16T03:13:12.497Z,8.90
2022-08-16T03:15:45.464Z,10.50
2022-08-16T03:18:34.452Z,10.32
2022-08-16T03:21:10.135Z,8.35
2022-08-16T03:23:44.104Z,12.60
2022-08-16T03:26:14.728Z,11.13
2022-08-16T03:28:48.264Z,10.98
2022-08-16T03:31:20.281Z,10.05
2022-08-16T03:33:52.135Z,15.13
2022-08-16T03:36:31.235Z,10.00
2022-08-16T03:39:06.628Z,15.25
2022-08-16T03:41:50.101Z,11.85
2022-08-16T03:44:44.479Z,11.50
2022-08-16T03:47:19.281Z,10.73
2022-08-16T03:49:51.499Z,10.90
2022-08-16T03:52:23.307Z,9.30
2022-08-16T03:54:57.923Z,9.63
2022-08-16T03:57:31.958Z,12.40
2022-08-16T04:00:20.751Z,10.35
2022-08-16T04:03:09.208Z,9.55
2022-08-16T04:05:46.721Z,12.90
2022-08-16T04:08:23.356Z,12.23
2022-08-16T04:10:58.055Z,10.35
2022-08-16T04:14:00.265Z,9.00
2022-08-16T04:16:27.580Z,11.40
2022-08-16T04:19:12.140Z,12.10
2022-08-16T04:21:46.172Z,10.68
2022-08-16T04:24:19.713Z,10.73
2022-08-16T04:26:49.407Z,10.95
2022-08-16T04:29:23.623Z,9.48
2022-08-16T04:31:57.989Z,11.45
2022-08-16T04:34:37.229Z,10.50
2022-08-16T04:37:08.406Z,9.45
2022-08-16T04:39:46.993Z,8.50
2022-08-16T04:42:29.645Z,9.27
2022-08-16T04:45:02.024Z,8.68
2022-08-16T04:47:36.241Z,8.70
2022-08-16T04:50:16.256Z,18.52
2022-08-16T04:53:05.757Z,10.32
2022-08-16T04:55:38.871Z,9.23
2022-08-16T04:58:44.229Z,9.73
2022-08-16T05:01:01.241Z,9.80
2022-08-16T05:03:33.688Z,7.82
2022-08-16T05:06:07.089Z,9.18
2022-08-16T05:08:39.473Z,9.50
2022-08-16T05:11:25.142Z,11.18
2022-08-16T05:14:06.959Z,9.35
2022-08-16T05:16:39.563Z,10.50
2022-08-16T05:19:16.501Z,11.90
2022-08-16T05:22:08.214Z,8.73
2022-08-16T05:24:49.495Z,11.85
2022-08-16T05:27:26.341Z,10.75
2022-08-16T05:30:01.996Z,10.15
2022-08-16T05:32:47.794Z,11.48
2022-08-16T05:35:19.267Z,11.45
2022-08-16T05:38:32.492Z,11.15
2022-08-16T05:41:09.315Z,10.75
2022-08-16T05:43:46.798Z,15.95
2022-08-16T05:46:30.057Z,10.43
2022-08-16T05:49:22.270Z,9.13
2022-08-16T05:51:57.370Z,11.98
2022-08-16T05:54:29.924Z,12.23
2022-08-16T05:57:02.919Z,13.98
2022-08-16T05:59:33.855Z,13.43
2022-08-16T06:02:03.331Z,15.00
2022-08-16T06:04:37.884Z,13.50
2022-08-16T06:07:25.034Z,12.23
2022-08-16T06:10:31.976Z,17.70
2022-08-16T06:13:05.829Z,13.48
2022-08-16T06:15:36.605Z,15.20
2022-08-16T06:18:07.098Z,11.95
2022-08-16T06:20:36.898Z,9.77
2022-08-16T06:23:26.342Z,14.20
2022-08-16T06:26:03.005Z,10.25
2022-08-16T06:28:39.163Z,10.13
2022-08-16T06:31:15.652Z,8.68
2022-08-16T06:33:49.269Z,9.68
2022-08-16T06:36:24.127Z,8.20
2022-08-16T06:39:16.288Z,7.43
2022-08-16T06:42:08.716Z,7.57
2022-08-16T06:45:00.621Z,5.03
2022-08-16T06:47:53.633Z,6.60
2022-08-16T06:50:29.450Z,3.95
2022-08-16T06:53:08.569Z,6.70
2022-08-16T06:56:13.949Z,4.95
2022-08-16T06:59:03.084Z,5.30
2022-08-16T07:01:53.696Z,4.40
2022-08-16T07:04:32.445Z,4.03
2022-08-16T07:07:10.152Z,6.10
2022-08-16T07:09:41.660Z,6.07
2022-08-16T07:12:11.780Z,4.95
2022-08-16T07:14:49.147Z,6.35
2022-08-16T07:17:21.735Z,4.03
2022-08-16T07:20:30.275Z,5.47
2022-08-16T07:22:59.162Z,5.10
2022-08-16T07:25:52.189Z,5.50
2022-08-16T07:28:24.249Z,3.95
2022-08-16T07:31:00.059Z,5.40
2022-08-16T07:33:52.821Z,5.10
2022-08-16T07:36:30.796Z,5.85
2022-08-16T07:39:01.179Z,4.43
2022-08-16T07:41:36.973Z,5.10
2022-08-16T07:44:16.809Z,6.57
2022-08-16T07:46:55.462Z,5.18
2022-08-16T07:49:27.109Z,4.00
2022-08-16T07:52:03.127Z,5.85
2022-08-16T07:54:49.019Z,5.28
2022-08-16T07:57:24.139Z,3.70
2022-08-16T07:59:57.409Z,8.00
2022-08-16T08:02:28.765Z,4.93
2022-08-16T08:05:00.482Z,4.18
2022-08-16T08:07:33.008Z,5.22
2022-08-16T08:10:11.025Z,5.30
2022-08-16T08:12:41.971Z,4.57
2022-08-16T08:15:14.824Z,6.68
2022-08-16T08:17:56.664Z,6.68
2022-08-16T08:20:45.865Z,7.45
2022-08-16T08:23:30.200Z,7.30
2022-08-16T08:26:00.436Z,6.15
2022-08-16T08:28:32.377Z,6.80
2022-08-16T08:31:07.226Z,8.73
2022-08-16T08:33:46.735Z,5.60
2022-08-16T08:36:33.630Z,5.65
2022-08-16T08:39:15.420Z,3.67
2022-08-16T08:41:51.303Z,4.97
2022-08-16T08:44:29.043Z,5.30
2022-08-16T08:47:12.093Z,5.13
2022-08-16T08:49:46.323Z,5.65
2022-08-16T08:52:34.190Z,7.63
2022-08-16T08:55:11.477Z,4.65
2022-08-16T08:57:47.727Z,5.45
2022-08-16T09:00:30.270Z,4.60
2022-08-16T09:03:04.243Z,3.97
2022-08-16T09:05:38.271Z,4.80
2022-08-16T09:08:11.737Z,5.13
2022-08-16T09:10:58.858Z,3.88
2022-08-16T09:13:33.451Z,5.90
2022-08-16T09:16:04.120Z,4.35
2022-08-16T09:18:36.615Z,6.10
2022-08-16T09:21:09.909Z,4.43
2022-08-16T09:23:41.008Z,5.50
2022-08-16T09:26:46.334Z,4.95
2022-08-16T09:29:15.527Z,4.68
2022-08-16T09:31:53.520Z,4.88
2022-08-16T09:34:23.264Z,6.03
2022-08-16T09:36:57.981Z,6.30
2022-08-16T09:39:41.504Z,4.70
2022-08-16T09:42:14.417Z,4.15
2022-08-16T09:45:11.854Z,7.18
2022-08-16T09:47:57.170Z,6.22
2022-08-16T09:50:25.727Z,4.00
2022-08-16T09:52:56.448Z,6.40
2022-08-16T09:55:28.072Z,9.60
2022-08-16T09:58:00.955Z,5.97
2022-08-16T10:00:44.226Z,4.18
2022-08-16T10:03:14.759Z,5.38
2022-08-16T10:05:44.676Z,6.63
2022-08-16T10:08:26.502Z,5.55
2022-08-16T10:11:15.229Z,6.07
2022-08-16T10:13:53.311Z,5.05
2022-08-16T10:16:24.755Z,8.18
2022-08-16T10:19:01.512Z,4.43
2022-08-16T10:21:34.101Z,4.43
2022-08-16T10:24:05.822Z,14.88
2022-08-16T10:27:18.138Z,5.72
2022-08-16T10:29:24.979Z,4.68
2022-08-16T10:32:14.371Z,4.32
2022-08-16T10:34:51.466Z,6.03
2022-08-16T10:37:32.630Z,4.13
2022-08-16T10:40:28.703Z,4.60
2022-08-16T10:43:01.107Z,5.50
2022-08-16T10:45:37.061Z,4.85
2022-08-16T10:48:23.917Z,7.60
2022-08-16T10:50:59.307Z,4.95
2022-08-16T10:53:32.835Z,5.20
2022-08-16T10:56:52.240Z,5.20
2022-08-16T10:59:32.748Z,5.35
2022-08-16T11:07:43.289Z,6.15
2022-08-16T11:11:04.984Z,5.65
2022-08-16T11:16:01.202Z,6.80
2022-08-16T11:18:54.991Z,7.90
2022-08-16T11:21:29.341Z,7.55
2022-08-16T11:23:59.883Z,5.07
2022-08-16T11:26:29.865Z,8.52
2022-08-16T11:29:16.530Z,6.88
2022-08-16T11:31:54.024Z,7.07
2022-08-16T11:34:31.827Z,8.48
2022-08-16T11:37:27.290Z,8.32
2022-08-16T11:39:59.950Z,5.13
2022-08-16T11:42:33.217Z,5.97
2022-08-16T11:45:09.514Z,5.97
2022-08-16T11:47:38.906Z,11.00
2022-08-16T11:50:10.275Z,4.55
2022-08-16T11:52:46.736Z,5.70
2022-08-16T11:55:16.436Z,3.53
2022-08-16T11:57:45.799Z,5.00
2022-08-16T12:00:42.669Z,5.82
2022-08-16T12:03:09.435Z,6.00
2022-08-16T12:05:44.085Z,4.90
2022-08-16T12:08:15.778Z,5.93
2022-08-16T12:10:48.885Z,4.15
2022-08-16T12:13:18.624Z,4.72
2022-08-16T12:15:50.813Z,6.53
2022-08-16T12:18:22.236Z,13.45
2022-08-16T12:20:55.151Z,13.35
2022-08-16T12:23:25.323Z,21.33
2022-08-16T12:25:54.601Z,7.40
2022-08-16T12:28:37.054Z,11.02
2022-08-16T12:31:14.869Z,11.05
2022-08-16T12:33:45.967Z,6.47
2022-08-16T12:36:17.724Z,5.65
2022-08-16T12:38:48.399Z,5.40
2022-08-16T12:41:24.526Z,6.78
2022-08-16T12:43:57.231Z,6.60
2022-08-16T12:46:32.272Z,9.80
2022-08-16T12:49:01.589Z,9.57
2022-08-16T12:51:58.293Z,6.43
2022-08-16T12:54:24.561Z,5.50
2022-08-16T12:56:53.833Z,3.78
2022-08-16T12:59:24.935Z,6.28
2022-08-16T13:02:01.920Z,3.63
2022-08-16T13:04:34.229Z,5.57
2022-08-16T13:07:06.004Z,3.83
2022-08-16T13:09:47.868Z,4.00
2022-08-16T13:12:20.107Z,5.47
2022-08-16T13:14:52.435Z,4.95
2022-08-16T13:17:29.679Z,6.43
2022-08-16T13:20:07.775Z,5.28
2022-08-16T13:25:17.401Z,5.93
2022-08-16T13:28:03.054Z,3.67
2022-08-16T13:30:41.885Z,5.20
2022-08-16T13:33:18.290Z,5.15
2022-08-16T13:35:58.553Z,6.50
2022-08-16T13:38:37.769Z,9.20
2022-08-16T13:41:09.286Z,3.65
2022-08-16T13:43:43.705Z,5.68
2022-08-16T13:48:57.528Z,4.35
2022-08-16T13:51:29.385Z,3.70
2022-08-16T13:54:04.629Z,5.25
2022-08-16T13:56:37.842Z,6.20
2022-08-16T13:59:20.903Z,5.18
2022-08-16T14:01:55.807Z,4.20
2022-08-16T14:04:31.406Z,5.13
2022-08-16T14:07:02.711Z,4.18
2022-08-16T14:09:36.385Z,4.38
2022-08-16T14:12:18.075Z,5.78
2022-08-16T14:14:48.519Z,3.83
2022-08-16T14:17:24.495Z,4.00
2022-08-16T14:19:59.960Z,5.25
2022-08-16T14:22:35.651Z,4.68
2022-08-16T14:25:12.544Z,4.50
2022-08-16T14:27:46.038Z,3.55
2022-08-16T14:30:20.692Z,5.05
2022-08-16T14:32:51.384Z,5.07
2022-08-16T14:35:36.641Z,4.53
2022-08-16T14:38:17.994Z,10.23
2022-08-16T14:40:53.291Z,3.72
2022-08-16T14:43:25.590Z,4.63
2022-08-16T14:45:59.774Z,4.68
2022-08-16T14:48:29.116Z,4.28
2022-08-16T14:50:59.719Z,3.90
2022-08-16T14:53:31.319Z,3.28
2022-08-16T14:56:02.075Z,4.93
2022-08-16T14:58:36.628Z,6.03
2022-08-16T15:01:10.149Z,4.78
2022-08-16T15:03:44.614Z,4.15
2022-08-16T15:06:16.415Z,3.90
2022-08-16T15:08:46.064Z,6.00
2022-08-16T15:11:16.099Z,4.20
2022-08-16T15:13:47.444Z,4.47
2022-08-16T15:16:16.909Z,5.75
2022-08-16T15:18:47.755Z,3.70
2022-08-16T15:21:19.311Z,10.77
2022-08-16T15:23:50.756Z,2.90
2022-08-16T15:26:34.550Z,7.38
2022-08-16T15:29:12.104Z,3.50
2022-08-16T15:31:44.418Z,5.03
2022-08-16T15:34:22.143Z,5.40
2022-08-16T15:36:57.060Z,6.40
2022-08-16T15:39:37.219Z,5.43
2022-08-16T15:42:11.019Z,3.42
2022-08-16T15:44:51.862Z,3.40
2022-08-16T15:47:26.330Z,3.53
2022-08-16T15:49:58.000Z,3.53
2022-08-16T15:52:32.177Z,7.45
2022-08-16T15:55:23.598Z,5.82
2022-08-16T15:57:53.699Z,5.20
2022-08-16T16:00:26.792Z,6.13
2022-08-16T16:03:09.780Z,5.55
2022-08-16T16:05:43.120Z,3.58
2022-08-16T16:08:24.039Z,3.38
2022-08-16T16:10:56.705Z,5.22
2022-08-16T16:13:26.067Z,2.88
2022-08-16T16:15:58.480Z,3.42
2022-08-16T16:18:30.114Z,3.72
2022-08-16T16:21:03.133Z,3.38
2022-08-16T16:23:44.487Z,3.22
2022-08-16T16:26:23.788Z,3.50
2022-08-16T16:29:08.623Z,5.35
2022-08-16T16:31:59.166Z,4.10
2022-08-16T16:34:32.203Z,3.88
2022-08-16T16:37:02.634Z,4.85
2022-08-16T16:39:33.588Z,4.43
2022-08-16T16:42:04.285Z,3.47
2022-08-16T16:44:36.291Z,5.30
2022-08-16T16:47:07.481Z,4.07
2022-08-16T16:49:41.756Z,6.93
2022-08-16T16:52:13.760Z,4.32
2022-08-16T16:55:06.406Z,3.47
2022-08-16T16:57:53.205Z,4.55
2022-08-16T17:00:26.054Z,4.10
2022-08-16T17:02:59.888Z,3.50
2022-08-16T17:05:32.523Z,4.43
2022-08-16T17:08:02.886Z,3.13
2022-08-16T17:10:46.679Z,5.97
2022-08-16T17:13:19.065Z,5.10
2022-08-16T17:15:52.391Z,4.13
2022-08-16T17:21:13.149Z,3.70
2022-08-16T17:23:58.838Z,3.78
2022-08-16T17:26:33.249Z,4.00
2022-08-16T17:29:11.394Z,5.78
2022-08-16T17:31:43.467Z,3.67
2022-08-16T17:34:28.737Z,4.72
2022-08-16T17:37:00.744Z,3.72
2022-08-16T17:39:26.514Z,5.18
2022-08-16T17:39:58.081Z,6.82
2022-08-16T17:42:28.000Z,6.03
2022-08-16T17:44:57.294Z,4.32
2022-08-16T17:47:26.604Z,4.03
2022-08-16T17:49:56.905Z,4.70
2022-08-16T17:52:28.763Z,4.90
2022-08-16T17:54:59.114Z,4.13
2022-08-16T17:57:29.926Z,11.45
2022-08-16T17:59:59.105Z,3.90
2022-08-16T18:02:43.943Z,5.75
2022-08-16T18:05:16.260Z,6.32
2022-08-16T18:07:46.354Z,6.65
2022-08-16T18:10:32.831Z,5.75
2022-08-16T18:13:05.446Z,5.03
2022-08-16T18:15:38.006Z,5.22
2022-08-16T18:18:08.456Z,6.40
2022-08-16T18:20:56.244Z,4.40
2022-08-16T18:23:28.084Z,7.55
2022-08-16T18:26:01.104Z,4.88
2022-08-16T18:28:34.870Z,4.80
2022-08-16T18:31:09.766Z,4.80
2022-08-16T18:33:43.113Z,4.88
2022-08-16T18:36:21.078Z,7.47
2022-08-16T18:40:23.996Z,7.18
2022-08-16T18:44:23.911Z,5.43
2022-08-16T18:46:14.912Z,7.07
2022-08-16T18:48:44.150Z,5.85
2022-08-16T18:51:20.325Z,8.70
2022-08-16T18:53:53.793Z,6.93
2022-08-16T18:56:23.073Z,7.05
2022-08-16T18:59:12.317Z,6.45
2022-08-16T19:01:44.481Z,7.25
2022-08-16T19:04:47.758Z,8.40
2022-08-16T19:07:15.114Z,9.23
2022-08-16T19:09:44.472Z,8.55
2022-08-16T19:12:16.074Z,6.50
2022-08-16T19:14:46.354Z,9.50
2022-08-16T19:17:18.375Z,9.27
2022-08-16T19:19:49.225Z,8.85
2022-08-16T19:22:51.989Z,6.82
2022-08-16T19:27:48.432Z,8.02
2022-08-16T19:30:19.879Z,9.55
2022-08-16T19:32:51.571Z,12.10
2022-08-16T19:35:23.367Z,11.40
2022-08-16T19:37:53.907Z,7.97
2022-08-16T19:40:38.238Z,6.78
2022-08-16T19:43:10.200Z,7.13
2022-08-16T19:45:45.840Z,9.90
2022-08-16T19:48:17.374Z,10.73
2022-08-16T19:50:46.657Z,6.30
2022-08-16T19:53:19.635Z,8.40
2022-08-16T19:55:49.884Z,10.13
2022-08-16T19:58:21.798Z,8.50
2022-08-16T20:00:52.253Z,10.63
2022-08-16T20:03:27.483Z,7.18
2022-08-16T20:05:59.841Z,7.40
2022-08-16T20:08:29.506Z,7.05
2022-08-16T20:10:59.412Z,9.00
2022-08-16T20:13:29.337Z,10.50
2022-08-16T20:15:58.666Z,7.80
2022-08-16T20:18:30.671Z,12.68
2022-08-16T20:21:01.174Z,8.10
2022-08-16T20:23:30.602Z,10.07
2022-08-16T20:26:00.114Z,9.85
2022-08-16T20:28:51.670Z,9.35
2022-08-16T20:31:19.708Z,8.60
2022-08-16T20:33:52.004Z,11.02
2022-08-16T20:36:22.033Z,10.82
2022-08-16T20:38:52.696Z,8.15
2022-08-16T20:41:22.537Z,8.50
2022-08-16T20:43:51.805Z,9.75
2022-08-16T20:46:25.370Z,8.88
2022-08-16T20:48:56.165Z,11.00
2022-08-16T20:51:26.433Z,10.05
2022-08-16T20:53:56.065Z,16.88
2022-08-16T20:56:27.981Z,8.80
2022-08-16T20:58:57.464Z,8.63
2022-08-16T21:01:27.271Z,10.38
2022-08-16T21:04:16.748Z,9.20
2022-08-16T21:06:54.385Z,10.25
2022-08-16T21:09:26.035Z,8.80
2022-08-16T21:11:57.842Z,7.57
2022-08-16T21:14:27.087Z,10.80
2022-08-16T21:16:57.241Z,6.63
2022-08-16T21:19:28.269Z,6.70
2022-08-16T21:21:58.267Z,6.53
2022-08-16T21:24:27.502Z,10.63
2022-08-16T21:26:56.824Z,7.25
2022-08-16T21:29:31.661Z,7.43
2022-08-16T21:32:16.245Z,9.18
2022-08-16T21:34:47.143Z,9.35
2022-08-16T21:37:16.424Z,9.50
2022-08-16T21:39:46.080Z,8.65
2022-08-16T21:42:18.730Z,8.35
2022-08-16T21:44:47.933Z,11.68
2022-08-16T21:47:17.185Z,8.43
2022-08-16T21:49:47.756Z,10.80
2022-08-16T21:52:26.536Z,11.63
2022-08-16T21:54:57.667Z,8.20
2022-08-16T21:57:27.302Z,8.23
2022-08-16T22:00:12.798Z,9.40
2022-08-16T22:02:42.579Z,9.88
2022-08-16T22:05:13.964Z,12.57
2022-08-16T22:07:43.350Z,10.38
2022-08-16T22:11:07.898Z,9.13
2022-08-16T22:13:03.061Z,12.07
2022-08-16T22:15:32.579Z,8.63
2022-08-16T22:18:01.878Z,7.60
2022-08-16T22:20:32.672Z,9.80
2022-08-16T22:23:10.685Z,11.15
2022-08-16T22:25:43.204Z,9.43
2022-08-16T22:28:13.893Z,8.20
2022-08-16T22:30:44.088Z,12.02
2022-08-16T22:33:16.248Z,9.80
2022-08-16T22:35:50.292Z,11.70
2022-08-16T22:38:55.528Z,9.63
2022-08-16T22:41:09.402Z,8.40
2022-08-16T22:43:39.699Z,9.55
2022-08-16T22:46:09.292Z,12.73
2022-08-16T22:48:39.240Z,10.75
2022-08-16T22:51:11.971Z,12.93
2022-08-16T22:53:41.107Z,9.60
2022-08-16T22:56:10.459Z,10.70
2022-08-16T22:58:39.966Z,9.68
2022-08-16T23:01:12.371Z,9.60
2022-08-16T23:03:42.341Z,10.32
2022-08-16T23:06:14.029Z,11.02
2022-08-16T23:08:44.117Z,9.68
2022-08-16T23:11:22.696Z,10.43
2022-08-16T23:13:54.582Z,12.45
2022-08-16T23:16:33.022Z,10.07
2022-08-16T23:19:05.809Z,9.00
2022-08-16T23:21:38.936Z,8.90
2022-08-16T23:24:09.550Z,15.55
2022-08-16T23:26:45.663Z,12.52
2022-08-16T23:29:23.517Z,10.48
2022-08-16T23:31:58.778Z,9.57
2022-08-16T23:34:29.501Z,9.40
2022-08-16T23:37:00.319Z,11.07
2022-08-16T23:39:30.814Z,9.18
2022-08-16T23:42:00.782Z,9.02
2022-08-16T23:44:57.362Z,8.55
2022-08-16T23:47:19.039Z,8.30
2022-08-16T23:49:59.885Z,12.73
2022-08-16T23:52:54.638Z,8.80
2022-08-16T23:55:22.412Z,9.52
2022-08-16T23:57:52.360Z,8.80
